Site contains unofficial IBTrACS data. Visit the IBTrACS Website to access archived data.

1871 Hurricane NOT_NAMED (1871243N19317)


IBTrACS version v04r00. Visit IBTrACS website for data access.
Please direct all questions to the IBTrACS Q and A forum

Storm track - Intensity - Wind Radii - Intensity Data - Source Data - All data

Summary Information

Storm ID 1871243N19317
Start Aug 30 12Z
Max Intensity 65 kt (Sep 8 00Z)
End Sep 10 12Z
ATCF IDs
Track status Best track data.

Storm track plot

Map of storm track

Intensity plots

Map of storm track

Radial wind information

No radial wind information for this storm


Position and Intensity Table

BASIN ISO_TIME_________ NATURE LAT LON MLC WIND
degrees north degrees east kts
NA 1871-08-30 12:00:00 TS 19.40 -43.30 35
NA 15:00:00 TS 19.50 -43.69 35
NA 18:00:00 TS 19.60 -44.10 35
NA 21:00:00 TS 19.70 -44.54 35
NA 1871-08-31 00:00:00 TS 19.80 -45.00 35
NA 03:00:00 TS 19.90 -45.45 35
NA 06:00:00 TS 20.00 -45.90 35
NA 09:00:00 TS 20.10 -46.35 37
NA 12:00:00 TS 20.20 -46.80 40
NA 15:00:00 TS 20.30 -47.26 40
NA 18:00:00 TS 20.40 -47.70 40
NA 21:00:00 TS 20.50 -48.10 40
NA 1871-09-01 00:00:00 TS 20.60 -48.50 40
NA 03:00:00 TS 20.70 -48.94 40
NA 06:00:00 TS 20.80 -49.40 40
NA 09:00:00 TS 20.90 -49.85 42
NA 12:00:00 TS 21.00 -50.30 45
NA 15:00:00 TS 21.10 -50.76 45
NA 18:00:00 TS 21.20 -51.20 45
NA 21:00:00 TS 21.30 -51.60 45
NA 1871-09-02 00:00:00 TS 21.40 -52.00 45
NA 03:00:00 TS 21.50 -52.44 45
NA 06:00:00 TS 21.60 -52.90 45
NA 09:00:00 TS 21.68 -53.36 47
NA 12:00:00 TS 21.80 -53.80 50
NA 15:00:00 TS 22.03 -54.21 50
NA 18:00:00 TS 22.30 -54.60 50
NA 21:00:00 TS 22.51 -55.00 50
NA 1871-09-03 00:00:00 TS 22.70 -55.40 50
NA 03:00:00 TS 22.90 -55.80 50
NA 06:00:00 TS 23.10 -56.20 50
NA 09:00:00 TS 23.29 -56.62 50
NA 12:00:00 TS 23.50 -57.00 50
NA 15:00:00 TS 23.75 -57.28 50
NA 18:00:00 TS 24.00 -57.50 50
NA 21:00:00 TS 24.20 -57.70 50
NA 1871-09-04 00:00:00 TS 24.40 -57.90 50
NA 03:00:00 TS 24.64 -58.15 50
NA 06:00:00 TS 24.90 -58.40 50
NA 09:00:00 TS 25.13 -58.62 50
NA 12:00:00 TS 25.40 -58.80 50
NA 15:00:00 TS 25.74 -58.96 50
NA 18:00:00 TS 26.10 -59.10 50
NA 21:00:00 TS 26.40 -59.25 50
NA 1871-09-05 00:00:00 TS 26.70 -59.40 50
NA 03:00:00 TS 27.05 -59.55 50
NA 06:00:00 TS 27.40 -59.70 50
NA 09:00:00 TS 27.69 -59.87 50
NA 12:00:00 TS 28.00 -60.00 50
NA 15:00:00 TS 28.43 -60.07 50
NA 18:00:00 TS 28.90 -60.10 50
NA 21:00:00 TS 29.36 -60.10 50
NA 1871-09-06 00:00:00 TS 29.80 -60.10 50
NA 03:00:00 TS 30.20 -60.15 50
NA 06:00:00 TS 30.60 -60.20 50
NA 09:00:00 TS 31.06 -60.22 52
NA 12:00:00 TS 31.50 -60.20 55
NA 15:00:00 TS 31.87 -60.15 55
NA 18:00:00 TS 32.20 -60.10 55
NA 21:00:00 TS 32.55 -60.10 57
NA 1871-09-07 00:00:00 TS 32.90 -60.10 60
NA 03:00:00 TS 33.26 -60.05 60
NA 06:00:00 TS 33.60 -60.00 60
NA 09:00:00 TS 33.91 -60.03 60
NA 12:00:00 TS 34.20 -60.00 60
NA 15:00:00 TS 34.46 -59.79 60
NA 18:00:00 TS 34.70 -59.50 60
NA 21:00:00 TS 34.95 -59.25 62
NA 1871-09-08 00:00:00 TS 35.20 -59.00 65
NA 03:00:00 TS 35.45 -58.75 65
NA 06:00:00 TS 35.70 -58.50 65
NA 09:00:00 TS 35.92 -58.27 65
NA 12:00:00 TS 36.20 -58.00 65
NA 15:00:00 TS 36.64 -57.63 65
NA 18:00:00 TS 37.10 -57.20 65
NA 21:00:00 TS 37.43 -56.75 65
NA 1871-09-09 00:00:00 TS 37.70 -56.30 65
NA 03:00:00 TS 37.92 -55.90 65
NA 06:00:00 TS 38.20 -55.50 65
NA 09:00:00 TS 38.65 -55.11 65
NA 12:00:00 TS 39.20 -54.60 65
NA 15:00:00 TS 39.79 -53.85 65
NA 18:00:00 TS 40.40 -53.00 65
NA 21:00:00 TS 41.00 -52.24 65
NA 1871-09-10 00:00:00 TS 41.60 -51.50 65
NA 03:00:00 TS 42.20 -50.75 65
NA 06:00:00 TS 42.80 -50.00 65
NA 09:00:00 TS 43.40 -49.25 62
NA 12:00:00 TS 44.00 -48.50 60

Source Information

Agency Information
USA
TOKYO
CMA
HKO
NEWDELHI
REUNION
BOM
NADI
WELLINGTON
DS824
TD9636
TD9635
NEUMANN
MLC

All available IBTrACS Data

SEASON BASIN SUBBASIN ISO_TIME_________ NATURE LAT LON DIST2LAND LANDFALL IFLAG USA SSHS MLC LAT MLC LON MLC CLASS MLC WIND STORM SPEED STORM DIR
Year degrees north degrees east km km 1 degrees north degrees east kts kts degrees
1871 NA NA 1871-08-30 12:00:00 TS 19.40 -43.30 1882 1869 _____________O -1 19.40 -43.30 TS 35 8 285
1871 NA NA 15:00:00 TS 19.50 -43.69 1869 1856 _____________P -1 19.50 -43.69 TS 35 8 285
1871 NA NA 18:00:00 TS 19.60 -44.10 1856 1845 _____________O -1 19.60 -44.10 TS 35 8 284
1871 NA NA 21:00:00 TS 19.70 -44.54 1845 1830 _____________P -1 19.70 -44.54 TS 35 9 283
1871 NA NA 1871-08-31 00:00:00 TS 19.80 -45.00 1830 1820 _____________O -1 19.80 -45.00 TS 35 9 283
1871 NA NA 03:00:00 TS 19.90 -45.45 1815 1806 _____________P -1 19.90 -45.45 TS 35 9 283
1871 NA NA 06:00:00 TS 20.00 -45.90 1807 1798 _____________O -1 20.00 -45.90 TS 35 9 283
1871 NA NA 09:00:00 TS 20.10 -46.35 1795 1787 _____________P -1 20.10 -46.35 TS 37 9 283
1871 NA NA 12:00:00 TS 20.20 -46.80 1789 1780 _____________O -1 20.20 -46.80 TS 40 9 283
1871 NA NA 15:00:00 TS 20.30 -47.26 1776 1767 _____________P -1 20.30 -47.26 TS 40 9 283
1871 NA NA 18:00:00 TS 20.40 -47.70 1768 1760 _____________O -1 20.40 -47.70 TS 40 8 284
1871 NA NA 21:00:00 TS 20.50 -48.10 1762 1736 _____________P -1 20.50 -48.10 TS 40 8 285
1871 NA NA 1871-09-01 00:00:00 TS 20.60 -48.50 1736 1710 _____________O -1 20.60 -48.50 TS 40 8 284
1871 NA NA 03:00:00 TS 20.70 -48.94 1710 1677 _____________P -1 20.70 -48.94 TS 40 9 283
1871 NA NA 06:00:00 TS 20.80 -49.40 1677 1653 _____________O -1 20.80 -49.40 TS 40 9 283
1871 NA NA 09:00:00 TS 20.90 -49.85 1646 1623 _____________P -1 20.90 -49.85 TS 42 9 283
1871 NA NA 12:00:00 TS 21.00 -50.30 1623 1587 _____________O -1 21.00 -50.30 TS 45 9 283
1871 NA NA 15:00:00 TS 21.10 -50.76 1577 1538 _____________P -1 21.10 -50.76 TS 45 9 283
1871 NA NA 18:00:00 TS 21.20 -51.20 1538 1499 _____________O -1 21.20 -51.20 TS 45 8 284
1871 NA NA 21:00:00 TS 21.30 -51.60 1499 1460 _____________P -1 21.30 -51.60 TS 45 8 285
1871 NA NA 1871-09-02 00:00:00 TS 21.40 -52.00 1460 1421 _____________O -1 21.40 -52.00 TS 45 8 284
1871 NA NA 03:00:00 TS 21.50 -52.44 1421 1373 _____________P -1 21.50 -52.44 TS 45 9 283
1871 NA NA 06:00:00 TS 21.60 -52.90 1373 1336 _____________O -1 21.60 -52.90 TS 45 9 282
1871 NA NA 09:00:00 TS 21.68 -53.36 1326 1288 _____________P -1 21.68 -53.36 TS 47 9 283
1871 NA NA 12:00:00 TS 21.80 -53.80 1288 1255 _____________O -1 21.80 -53.80 TS 50 9 294
1871 NA NA 15:00:00 TS 22.03 -54.21 1255 1226 _____________P -1 22.03 -54.21 TS 50 9 304
1871 NA NA 18:00:00 TS 22.30 -54.60 1226 1195 _____________O -1 22.30 -54.60 TS 50 9 303
1871 NA NA 21:00:00 TS 22.51 -55.00 1195 1165 _____________P -1 22.51 -55.00 TS 50 8 298
1871 NA NA 1871-09-03 00:00:00 TS 22.70 -55.40 1165 1136 _____________O -1 22.70 -55.40 TS 50 8 298
1871 NA NA 03:00:00 TS 22.90 -55.80 1136 1109 _____________P -1 22.90 -55.80 TS 50 8 298
1871 NA NA 06:00:00 TS 23.10 -56.20 1109 1083 _____________O -1 23.10 -56.20 TS 50 9 297
1871 NA NA 09:00:00 TS 23.29 -56.62 1083 1059 _____________P -1 23.29 -56.62 TS 50 8 299
1871 NA NA 12:00:00 TS 23.50 -57.00 1059 1044 _____________O -1 23.50 -57.00 TS 50 8 307
1871 NA NA 15:00:00 TS 23.75 -57.28 1044 1040 _____________P -1 23.75 -57.28 TS 50 7 317
1871 NA NA 18:00:00 TS 24.00 -57.50 1046 1043 _____________O -1 24.00 -57.50 TS 50 6 320
1871 NA NA 21:00:00 TS 24.20 -57.70 1043 1041 _____________P -1 24.20 -57.70 TS 50 5 318
1871 NA NA 1871-09-04 00:00:00 TS 24.40 -57.90 1041 1039 _____________O -1 24.40 -57.90 TS 50 6 317
1871 NA NA 03:00:00 TS 24.64 -58.15 1039 1039 _____________P -1 24.64 -58.15 TS 50 7 318
1871 NA NA 06:00:00 TS 24.90 -58.40 1039 1039 _____________O -1 24.90 -58.40 TS 50 7 319
1871 NA NA 09:00:00 TS 25.13 -58.62 1040 1040 _____________P -1 25.13 -58.62 TS 50 6 324
1871 NA NA 12:00:00 TS 25.40 -58.80 1050 1050 _____________O -1 25.40 -58.80 TS 50 7 333
1871 NA NA 15:00:00 TS 25.74 -58.96 1061 1061 _____________P -1 25.74 -58.96 TS 50 8 339
1871 NA NA 18:00:00 TS 26.10 -59.10 1089 1089 _____________O -1 26.10 -59.10 TS 50 7 338
1871 NA NA 21:00:00 TS 26.40 -59.25 1103 1103 _____________P -1 26.40 -59.25 TS 50 7 336
1871 NA NA 1871-09-05 00:00:00 TS 26.70 -59.40 1124 1124 _____________O -1 26.70 -59.40 TS 50 7 338
1871 NA NA 03:00:00 TS 27.05 -59.55 1140 1140 _____________P -1 27.05 -59.55 TS 50 8 339
1871 NA NA 06:00:00 TS 27.40 -59.70 1172 1172 _____________O -1 27.40 -59.70 TS 50 7 336
1871 NA NA 09:00:00 TS 27.69 -59.87 1191 1191 _____________P -1 27.69 -59.87 TS 50 7 336
1871 NA NA 12:00:00 TS 28.00 -60.00 1215 1215 _____________O -1 28.00 -60.00 TS 50 8 346
1871 NA NA 15:00:00 TS 28.43 -60.07 1250 1250 _____________P -1 28.43 -60.07 TS 50 9 355
1871 NA NA 18:00:00 TS 28.90 -60.10 1299 1299 _____________O -1 28.90 -60.10 TS 50 9 358
1871 NA NA 21:00:00 TS 29.36 -60.10 1349 1349 _____________P -1 29.36 -60.10 TS 50 9 0
1871 NA NA 1871-09-06 00:00:00 TS 29.80 -60.10 1390 1390 _____________O -1 29.80 -60.10 TS 50 8 358
1871 NA NA 03:00:00 TS 30.20 -60.15 1430 1426 _____________P -1 30.20 -60.15 TS 50 8 354
1871 NA NA 06:00:00 TS 30.60 -60.20 1467 1462 _____________O -1 30.60 -60.20 TS 50 9 356
1871 NA NA 09:00:00 TS 31.06 -60.22 1451 1409 _____________P -1 31.06 -60.22 TS 52 9 0
1871 NA NA 12:00:00 TS 31.50 -60.20 1409 1377 _____________O -1 31.50 -60.20 TS 55 8 4
1871 NA NA 15:00:00 TS 31.87 -60.15 1366 1337 _____________P -1 31.87 -60.15 TS 55 7 7
1871 NA NA 18:00:00 TS 32.20 -60.10 1337 1305 _____________O -1 32.20 -60.10 TS 55 7 4
1871 NA NA 21:00:00 TS 32.55 -60.10 1295 1263 _____________P -1 32.55 -60.10 TS 57 7 0
1871 NA NA 1871-09-07 00:00:00 TS 32.90 -60.10 1263 1232 _____________O -1 32.90 -60.10 TS 60 7 4
1871 NA NA 03:00:00 TS 33.26 -60.05 1221 1193 _____________P -1 33.26 -60.05 TS 60 7 6
1871 NA NA 06:00:00 TS 33.60 -60.00 1193 1162 _____________O -1 33.60 -60.00 TS 60 7 0
1871 NA NA 09:00:00 TS 33.91 -60.03 1162 1131 _____________P -1 33.91 -60.03 TS 60 6 1
1871 NA NA 12:00:00 TS 34.20 -60.00 1131 1114 _____________O -1 34.20 -60.00 TS 60 6 20
1871 NA NA 15:00:00 TS 34.46 -59.79 1107 1098 _____________P -1 34.46 -59.79 TS 60 6 40
1871 NA NA 18:00:00 TS 34.70 -59.50 1098 1086 _____________O -1 34.70 -59.50 TS 60 7 42
1871 NA NA 21:00:00 TS 34.95 -59.25 1090 1069 _____________P -1 34.95 -59.25 TS 62 6 39
1871 NA NA 1871-09-08 00:00:00 TS 35.20 -59.00 1069 1058 _____________O -1 35.20 -59.00 HU 65 6 39
1871 NA NA 03:00:00 TS 35.45 -58.75 1063 1043 _____________P -1 35.45 -58.75 HU 65 6 39
1871 NA NA 06:00:00 TS 35.70 -58.50 1043 1034 _____________O -1 35.70 -58.50 HU 65 6 40
1871 NA NA 09:00:00 TS 35.92 -58.27 1034 1021 _____________P -1 35.92 -58.27 HU 65 6 39
1871 NA NA 12:00:00 TS 36.20 -58.00 1021 997 _____________O -1 36.20 -58.00 HU 65 9 36
1871 NA NA 15:00:00 TS 36.64 -57.63 1000 957 _____________P -1 36.64 -57.63 HU 65 11 35
1871 NA NA 18:00:00 TS 37.10 -57.20 957 935 _____________O -1 37.10 -57.20 HU 65 11 42
1871 NA NA 21:00:00 TS 37.43 -56.75 941 920 _____________P -1 37.43 -56.75 HU 65 9 50
1871 NA NA 1871-09-09 00:00:00 TS 37.70 -56.30 924 915 _____________O -1 37.70 -56.30 HU 65 8 54
1871 NA NA 03:00:00 TS 37.92 -55.90 918 905 _____________P -1 37.92 -55.90 HU 65 8 52
1871 NA NA 06:00:00 TS 38.20 -55.50 905 880 _____________O -1 38.20 -55.50 HU 65 10 41
1871 NA NA 09:00:00 TS 38.65 -55.11 884 826 _____________P -1 38.65 -55.11 HU 65 12 35
1871 NA NA 12:00:00 TS 39.20 -54.60 826 756 _____________O -1 39.20 -54.60 HU 65 15 41
1871 NA NA 15:00:00 TS 39.79 -53.85 756 689 _____________P -1 39.79 -53.85 HU 65 17 46
1871 NA NA 18:00:00 TS 40.40 -53.00 689 626 _____________O -1 40.40 -53.00 HU 65 17 45
1871 NA NA 21:00:00 TS 41.00 -52.24 627 571 _____________P -1 41.00 -52.24 HU 65 16 43
1871 NA NA 1871-09-10 00:00:00 TS 41.60 -51.50 571 524 _____________O -1 41.60 -51.50 HU 65 16 43
1871 NA NA 03:00:00 TS 42.20 -50.75 527 491 _____________P -1 42.20 -50.75 HU 65 16 43
1871 NA NA 06:00:00 TS 42.80 -50.00 491 468 _____________O -1 42.80 -50.00 HU 65 16 42
1871 NA NA 09:00:00 TS 43.40 -49.25 468 461 _____________P -1 43.40 -49.25 HU 62 16 42
1871 NA NA 12:00:00 TS 44.00 -48.50 466 _____________O -1 44.00 -48.50 TS 60 16 42